createdAt,value
2022-12-15T09:30:43.042Z,45.10
2022-12-15T09:32:45.848Z,53.72
2022-12-15T09:34:48.085Z,64.45
2022-12-15T09:36:52.742Z,50.28
2022-12-15T09:38:55.342Z,62.53
2022-12-15T09:40:57.759Z,58.67
2022-12-15T09:43:32.764Z,51.92
2022-12-15T09:45:32.696Z,52.75
2022-12-15T09:47:43.563Z,64.68
2022-12-15T09:49:55.623Z,53.75
2022-12-15T09:52:10.920Z,56.30
2022-12-15T09:54:13.707Z,52.92
2022-12-15T09:56:21.613Z,48.58
2022-12-15T09:58:24.115Z,59.38
2022-12-15T10:00:52.214Z,49.47
2022-12-15T10:03:30.784Z,63.67
2022-12-15T10:06:19.184Z,56.30
2022-12-15T10:08:23.969Z,61.15
2022-12-15T10:10:34.785Z,63.10
2022-12-15T10:12:44.738Z,62.40
2022-12-15T10:15:23.047Z,55.90
2022-12-15T10:17:34.196Z,53.42
2022-12-15T10:21:39.473Z,61.03
2022-12-15T10:23:41.841Z,58.60
2022-12-15T10:25:48.301Z,63.13
2022-12-15T10:28:18.240Z,68.20
2022-12-15T10:30:20.930Z,58.25
2022-12-15T10:32:43.039Z,51.80
2022-12-15T10:34:46.134Z,66.90
2022-12-15T10:36:51.974Z,62.50
2022-12-15T10:38:55.670Z,59.72
2022-12-15T10:41:25.925Z,55.78
2022-12-15T10:43:28.634Z,55.28
2022-12-15T10:45:38.591Z,63.10
2022-12-15T10:47:41.395Z,62.08
2022-12-15T10:49:43.933Z,69.22
2022-12-15T10:51:56.293Z,77.30
2022-12-15T10:54:01.708Z,63.60
2022-12-15T10:56:06.554Z,62.88
2022-12-15T10:58:21.012Z,60.78
2022-12-15T11:00:31.987Z,56.85
2022-12-15T11:02:36.647Z,65.03
2022-12-15T11:04:39.365Z,62.60
2022-12-15T11:06:42.605Z,66.35
2022-12-15T11:08:47.416Z,69.87
2022-12-15T11:11:17.113Z,67.05
2022-12-15T11:13:22.047Z,64.55
2022-12-15T11:15:24.302Z,63.15
2022-12-15T11:17:40.814Z,59.50
2022-12-15T11:19:46.462Z,57.25
2022-12-15T11:21:56.493Z,61.30
2022-12-15T11:24:04.645Z,63.17
2022-12-15T11:26:22.971Z,52.92
2022-12-15T11:28:34.538Z,60.65
2022-12-15T11:30:47.390Z,65.72
2022-12-15T11:32:58.209Z,78.57
2022-12-15T11:35:01.054Z,57.62
2022-12-15T11:37:24.716Z,60.95
2022-12-15T11:39:57.991Z,64.75
2022-12-15T11:42:15.441Z,71.40
2022-12-15T11:44:54.548Z,66.40
2022-12-15T11:47:32.026Z,59.53
2022-12-15T11:50:03.649Z,66.95
2022-12-15T11:52:11.640Z,67.65
2022-12-15T11:54:28.415Z,63.08
2022-12-15T11:56:39.272Z,63.85
2022-12-15T12:01:00.188Z,58.85
2022-12-15T12:03:08.824Z,64.47
2022-12-15T12:05:28.490Z,69.68
2022-12-15T12:07:44.279Z,61.83
2022-12-15T12:10:03.437Z,63.35
2022-12-15T12:12:13.342Z,74.75
2022-12-15T12:14:34.288Z,60.03
2022-12-15T12:18:57.662Z,59.65
2022-12-15T12:21:11.878Z,66.25
2022-12-15T12:23:20.302Z,60.20
2022-12-15T12:25:25.619Z,76.93
2022-12-15T12:27:37.070Z,56.00
2022-12-15T12:29:51.400Z,63.20
2022-12-15T12:31:57.631Z,63.17
2022-12-15T12:34:11.067Z,70.93
2022-12-15T12:36:15.845Z,60.60
2022-12-15T12:38:25.802Z,59.15
2022-12-15T12:40:40.477Z,67.53
2022-12-15T12:42:53.424Z,55.92
2022-12-15T12:44:56.117Z,54.83
2022-12-15T12:47:06.157Z,54.38
2022-12-15T12:49:32.985Z,68.45
2022-12-15T12:51:41.071Z,68.68
2022-12-15T12:53:43.466Z,60.60
2022-12-15T12:55:46.172Z,66.35
2022-12-15T12:57:50.221Z,64.90
2022-12-15T13:00:02.702Z,67.10
2022-12-15T13:02:35.223Z,58.87
2022-12-15T13:04:39.869Z,61.55
2022-12-15T13:06:42.072Z,61.97
2022-12-15T13:08:52.073Z,61.30
2022-12-15T13:10:56.194Z,62.97
2022-12-15T13:12:59.759Z,60.35
2022-12-15T13:15:31.489Z,70.72
2022-12-15T13:17:41.739Z,57.22
2022-12-15T13:19:59.270Z,61.20
2022-12-15T13:22:02.765Z,61.17
2022-12-15T13:24:05.661Z,63.30
2022-12-15T13:26:08.500Z,67.20
2022-12-15T13:28:29.592Z,62.47
2022-12-15T13:30:31.932Z,79.82
2022-12-15T13:33:00.590Z,65.03
2022-12-15T13:35:12.434Z,76.50
2022-12-15T13:37:45.683Z,65.87
2022-12-15T13:39:54.936Z,76.75
2022-12-15T13:44:34.955Z,76.95
2022-12-15T13:46:37.664Z,67.00
2022-12-15T13:48:41.600Z,60.35
2022-12-15T13:51:02.536Z,76.50
2022-12-15T13:53:20.895Z,72.20
2022-12-15T13:55:35.633Z,74.45
2022-12-15T13:57:51.476Z,67.30
2022-12-15T14:00:05.314Z,62.35
2022-12-15T14:02:22.919Z,76.53
2022-12-15T14:04:26.566Z,74.90
2022-12-15T14:06:35.093Z,74.62
2022-12-15T14:08:37.951Z,71.55
2022-12-15T14:10:50.813Z,72.30
2022-12-15T14:12:56.580Z,70.40
2022-12-15T14:14:59.147Z,67.65
2022-12-15T14:17:08.455Z,66.25
2022-12-15T14:19:16.237Z,68.60
2022-12-15T14:21:23.896Z,68.45
2022-12-15T14:23:29.518Z,68.85
2022-12-15T14:25:32.359Z,69.65
2022-12-15T14:27:34.687Z,75.72
2022-12-15T14:29:37.266Z,82.82
2022-12-15T14:31:40.721Z,73.47
2022-12-15T14:33:45.765Z,92.22
2022-12-15T14:35:56.869Z,67.73
2022-12-15T14:38:02.628Z,81.95
2022-12-15T14:40:05.667Z,65.47
2022-12-15T14:42:23.475Z,74.12
2022-12-15T14:44:39.279Z,82.28
2022-12-15T14:46:46.860Z,77.28
2022-12-15T14:48:57.591Z,71.53
2022-12-15T14:51:01.907Z,72.53
2022-12-15T14:53:16.700Z,77.78
2022-12-15T14:55:37.903Z,75.50
2022-12-15T14:57:47.670Z,76.18
2022-12-15T14:59:51.501Z,69.57
2022-12-15T15:02:10.757Z,72.35
2022-12-15T15:04:21.999Z,76.15
2022-12-15T15:08:36.998Z,76.00
2022-12-15T15:10:39.793Z,82.80
2022-12-15T15:12:46.120Z,85.07
2022-12-15T15:15:14.630Z,66.85
2022-12-15T15:17:27.332Z,70.53
2022-12-15T15:19:32.397Z,68.15
2022-12-15T15:21:37.299Z,69.30
2022-12-15T15:23:40.122Z,61.92
2022-12-15T15:25:51.648Z,62.13
2022-12-15T15:28:14.323Z,60.53
2022-12-15T15:30:23.477Z,71.87
2022-12-15T15:32:25.746Z,68.80
2022-12-15T15:34:28.295Z,64.30
2022-12-15T15:36:36.264Z,80.65
2022-12-15T15:38:39.583Z,74.85
2022-12-15T15:40:42.211Z,68.65
2022-12-15T15:42:46.065Z,62.62
2022-12-15T15:44:48.611Z,61.92
2022-12-15T15:46:52.510Z,73.03
2022-12-15T15:49:01.789Z,64.22
2022-12-15T15:51:05.548Z,53.67
2022-12-15T15:53:15.670Z,57.10
2022-12-15T15:55:28.475Z,54.80
2022-12-15T15:57:30.757Z,57.92
2022-12-15T15:59:33.350Z,64.53
2022-12-15T16:01:35.742Z,62.15
2022-12-15T16:03:38.709Z,57.03
2022-12-15T16:05:42.107Z,60.70
2022-12-15T16:07:46.698Z,63.13
2022-12-15T16:09:49.904Z,70.32
2022-12-15T16:11:52.238Z,54.88
2022-12-15T16:13:54.716Z,120.57
2022-12-15T16:15:57.472Z,61.72
2022-12-15T16:18:00.442Z,58.10
2022-12-15T16:20:02.832Z,58.35
2022-12-15T16:22:05.419Z,59.80
2022-12-15T16:24:17.725Z,54.90
2022-12-15T16:26:27.708Z,49.88
2022-12-15T16:28:31.716Z,49.72
2022-12-15T16:30:34.439Z,55.80
2022-12-15T16:32:36.899Z,53.50
2022-12-15T16:34:39.639Z,53.15
2022-12-15T16:36:42.207Z,47.50
2022-12-15T16:38:44.500Z,49.67
2022-12-15T16:40:47.235Z,53.55
2022-12-15T16:43:01.158Z,46.90
2022-12-15T16:45:15.464Z,48.67
2022-12-15T16:47:19.069Z,61.75
2022-12-15T16:49:21.733Z,54.60
2022-12-15T16:51:37.488Z,54.35
2022-12-15T16:53:42.964Z,51.17
2022-12-15T16:55:45.716Z,51.88
2022-12-15T16:57:48.603Z,58.92
2022-12-15T16:59:51.261Z,52.03
2022-12-15T17:01:57.921Z,53.90
2022-12-15T17:04:00.766Z,52.30
2022-12-15T17:06:06.579Z,55.20
2022-12-15T17:08:18.265Z,53.45
2022-12-15T17:10:24.262Z,47.13
2022-12-15T17:12:26.977Z,49.42
2022-12-15T17:14:29.221Z,52.22
2022-12-15T17:16:31.605Z,50.33
2022-12-15T17:18:34.508Z,49.92
2022-12-15T17:20:37.138Z,61.92
2022-12-15T17:22:40.272Z,50.12
2022-12-15T17:24:45.968Z,47.17
2022-12-15T17:26:48.618Z,52.90
2022-12-15T17:28:51.734Z,48.67
2022-12-15T17:30:54.856Z,50.90
2022-12-15T17:32:57.354Z,48.40
2022-12-15T17:35:00.222Z,47.10
2022-12-15T17:37:05.638Z,72.22
2022-12-15T17:39:11.200Z,52.00
2022-12-15T17:41:35.034Z,57.20
2022-12-15T17:43:38.240Z,58.70
2022-12-15T17:45:41.597Z,54.78
2022-12-15T17:47:45.169Z,45.83
2022-12-15T17:49:48.127Z,41.55
2022-12-15T17:51:50.905Z,53.55
2022-12-15T17:53:53.323Z,58.67
2022-12-15T17:55:56.350Z,52.95
2022-12-15T17:57:59.553Z,43.72
2022-12-15T18:00:03.823Z,46.37
2022-12-15T18:02:11.756Z,49.72
2022-12-15T18:04:14.964Z,47.13
2022-12-15T18:06:18.372Z,43.05
2022-12-15T18:08:28.188Z,43.05
2022-12-15T18:10:38.252Z,43.60
2022-12-15T18:12:40.665Z,50.47
2022-12-15T18:14:43.224Z,36.60
2022-12-15T18:16:46.970Z,42.45
2022-12-15T18:18:50.797Z,39.45
2022-12-15T18:21:00.542Z,46.97
2022-12-15T18:23:12.631Z,46.90
2022-12-15T18:25:18.425Z,41.55
2022-12-15T18:27:26.991Z,38.75
2022-12-15T18:29:32.347Z,45.70
2022-12-15T18:31:35.174Z,43.53
2022-12-15T18:33:39.068Z,43.50
2022-12-15T18:35:44.548Z,45.50
2022-12-15T18:37:47.645Z,41.45
2022-12-15T18:39:51.025Z,46.88
2022-12-15T18:41:57.326Z,43.97
2022-12-15T18:44:00.282Z,34.63
2022-12-15T18:46:03.321Z,40.53
2022-12-15T18:48:16.491Z,37.80
2022-12-15T18:50:28.567Z,42.15
2022-12-15T18:52:34.846Z,40.78
2022-12-15T18:54:37.850Z,42.85
2022-12-15T18:56:40.504Z,34.60
2022-12-15T18:58:43.600Z,38.75
2022-12-15T19:00:48.478Z,32.88
2022-12-15T19:02:54.311Z,38.65
2022-12-15T19:04:57.576Z,35.05
2022-12-15T19:07:07.094Z,39.90
2022-12-15T19:09:21.802Z,39.65
2022-12-15T19:11:34.159Z,35.60
2022-12-15T19:13:38.911Z,48.33
2022-12-15T19:15:42.523Z,40.97
2022-12-15T19:18:04.129Z,41.03
2022-12-15T19:20:37.530Z,38.15
2022-12-15T19:22:41.361Z,37.00
2022-12-15T19:24:56.428Z,48.47
2022-12-15T19:27:01.373Z,39.35
2022-12-15T19:29:18.205Z,34.40
2022-12-15T19:31:22.426Z,33.53
2022-12-15T19:33:28.349Z,104.28
2022-12-15T19:35:32.274Z,36.42
2022-12-15T19:37:37.596Z,37.35
2022-12-15T19:39:41.827Z,37.17
2022-12-15T19:41:44.722Z,31.70
2022-12-15T19:43:48.108Z,33.00
2022-12-15T19:45:52.921Z,34.92
2022-12-15T19:47:56.224Z,27.45
2022-12-15T19:49:59.787Z,35.90
2022-12-15T19:52:03.525Z,39.15
2022-12-15T19:54:06.943Z,30.55
2022-12-15T19:56:18.416Z,31.30
2022-12-15T19:58:27.808Z,27.33
2022-12-15T20:00:31.039Z,40.15
2022-12-15T20:02:34.458Z,35.92
2022-12-15T20:04:37.591Z,37.40
2022-12-15T20:06:47.252Z,34.75
2022-12-15T20:08:54.765Z,40.03
2022-12-15T20:10:57.562Z,34.63
2022-12-15T20:13:06.555Z,37.83
2022-12-15T20:15:22.370Z,37.17
2022-12-15T20:17:25.673Z,43.80
2022-12-15T20:19:28.993Z,43.35
2022-12-15T20:21:35.649Z,35.40
2022-12-15T20:23:48.375Z,35.00
2022-12-15T20:25:51.778Z,33.85
2022-12-15T20:27:55.216Z,35.03
2022-12-15T20:29:58.765Z,46.05
2022-12-15T20:32:02.171Z,33.42
2022-12-15T20:34:05.691Z,35.65
2022-12-15T20:36:17.233Z,35.58
2022-12-15T20:38:34.349Z,39.85
2022-12-15T20:40:37.832Z,34.38
2022-12-15T20:42:40.750Z,35.75
2022-12-15T20:44:43.603Z,36.35
2022-12-15T20:46:46.435Z,44.90
2022-12-15T20:48:50.820Z,33.58
2022-12-15T20:50:56.148Z,35.20
2022-12-15T20:52:59.647Z,31.87
2022-12-15T20:55:03.498Z,29.98
2022-12-15T20:57:07.256Z,28.45
2022-12-15T20:59:10.700Z,27.23
2022-12-15T21:01:26.179Z,30.30
2022-12-15T21:03:34.183Z,30.12
2022-12-15T21:05:38.605Z,31.83
2022-12-15T21:07:42.425Z,31.35
2022-12-15T21:09:44.736Z,34.25
2022-12-15T21:11:49.073Z,28.20
2022-12-15T21:13:53.672Z,28.70
2022-12-15T21:15:56.079Z,26.62
2022-12-15T21:18:40.252Z,28.55
2022-12-15T21:20:21.119Z,29.75
2022-12-15T21:22:28.354Z,27.48
2022-12-15T21:24:31.795Z,35.15
2022-12-15T21:26:34.074Z,40.30
2022-12-15T21:28:36.358Z,33.97
2022-12-15T21:30:39.353Z,34.10
2022-12-15T21:32:41.703Z,41.95
2022-12-15T21:34:44.921Z,41.78
2022-12-15T21:36:51.771Z,33.97
2022-12-15T21:38:54.919Z,28.17
2022-12-15T21:40:59.963Z,27.48
2022-12-15T21:43:04.562Z,27.30
2022-12-15T21:45:27.184Z,24.92
2022-12-15T21:47:51.949Z,23.60
2022-12-15T21:49:55.027Z,30.62
2022-12-15T21:52:00.199Z,23.42
2022-12-15T21:54:03.179Z,24.42
2022-12-15T21:56:06.068Z,25.48
2022-12-15T21:58:20.607Z,27.52
2022-12-15T22:00:24.382Z,29.00
2022-12-15T22:02:27.224Z,27.70
2022-12-15T22:04:32.619Z,27.13
2022-12-15T22:06:34.875Z,25.27
2022-12-15T22:08:37.468Z,22.70
2022-12-15T22:10:39.799Z,24.25
2022-12-15T22:12:44.313Z,23.70
2022-12-15T22:14:47.439Z,31.77
2022-12-15T22:16:49.755Z,22.42
2022-12-15T22:18:54.911Z,27.73
2022-12-15T22:20:57.844Z,27.23
2022-12-15T22:23:00.190Z,27.15
2022-12-15T22:25:02.437Z,25.50
2022-12-15T22:27:05.827Z,25.65
2022-12-15T22:29:19.770Z,30.77
2022-12-15T22:31:22.229Z,32.05
2022-12-15T22:33:26.332Z,30.05
2022-12-15T22:35:28.729Z,25.95
2022-12-15T22:37:30.965Z,27.85
2022-12-15T22:39:33.943Z,117.10
2022-12-15T22:41:40.531Z,27.17
2022-12-15T22:43:46.336Z,26.27
2022-12-15T22:45:51.710Z,31.50
2022-12-15T22:47:55.041Z,27.80
2022-12-15T22:49:57.625Z,26.62
2022-12-15T22:52:00.213Z,27.27
2022-12-15T22:54:02.626Z,26.05
2022-12-15T22:56:23.551Z,34.13
2022-12-15T23:00:34.208Z,26.77
2022-12-15T23:02:41.089Z,25.35
